This is the latest recevied weather packets stored in our database for station/object DF2AP-13. If no packets are shown the sender has not sent any weather packets the latest 10 day(s).
| Time | Temp. | Humidity | Pressure | Rain* | Wind** | Luminosity | Snow |
|---|---|---|---|---|---|---|---|
| 1777717527 | 23.33° C | 33% | 1022 hPa | - | - | - | - |
| 1777716927 | 22.78° C | 31% | 1022.1 hPa | - | - | - | - |
| 1777716327 | 23.33° C | 32% | 1022.2 hPa | - | - | - | - |
| 1777715727 | 22.78° C | 33% | 1022.3 hPa | - | - | - | - |
| 1777715127 | 22.78° C | 33% | 1022.5 hPa | - | - | - | - |
| 1777714527 | 22.22° C | 34% | 1022.5 hPa | - | - | - | - |
| 1777713927 | 22.22° C | 33% | 1022.6 hPa | - | - | - | - |
| 1777713327 | 22.22° C | 36% | 1022.7 hPa | - | - | - | - |
| 1777712727 | 21.67° C | 37% | 1022.8 hPa | - | - | - | - |
| 1777712127 | 21.67° C | 37% | 1023 hPa | - | - | - | - |
| 1777711527 | 21.67° C | 37% | 1023.1 hPa | - | - | - | - |
| 1777710933 | 21.67° C | 37% | 1023.1 hPa | - | - | - | - |
| 1777710327 | 21.11° C | 40% | 1023.3 hPa | - | - | - | - |
| 1777709727 | 20.56° C | 41% | 1023.3 hPa | - | - | - | - |
| 1777709127 | 20° C | 42% | 1023.5 hPa | - | - | - | - |
| 1777708527 | 18.89° C | 46% | 1023.7 hPa | - | - | - | - |
| 1777707927 | 18.33° C | 50% | 1023.9 hPa | - | - | - | - |
| 1777707327 | 17.22° C | 54% | 1024 hPa | - | - | - | - |
| 1777706727 | 16.11° C | 60% | 1024.3 hPa | - | - | - | - |
| 1777706127 | 15° C | 64% | 1024.4 hPa | - | - | - | - |
| 1777705527 | 13.33° C | 68% | 1024.7 hPa | - | - | - | - |
| 1777704927 | 12.22° C | 73% | 1024.8 hPa | - | - | - | - |
| 1777704333 | 11.11° C | 77% | 1025 hPa | - | - | - | - |
| 1777703727 | 10.56° C | 78% | 1025.1 hPa | - | - | - | - |
| 1777703127 | 10° C | 80% | 1025.3 hPa | - | - | - | - |
* Rain since midnight (hover to see other rain measurements)
** Current wind speed in m/s (hover to see current wind gust speed)